PWSweather.com
Personal Weather Stations
Station Observations
IPORTUGA89
BarosaPT

BarosaPT

Lat: 39.754028, Lon: -8.843

Elevation: 98

Station Type: Davis Vp2

High Low Average
Temperature 56.3°F13.5°C 33.3°F0.7°C 46.5°F8.1°C
Dew Point 50.0°F10.0°C 31.6°F-0.2°C 42.9°F6.1°C
Winds 10.1 mph 16.3 kmh Calm Calm 2.0 mph SW3.2 kmh SW
Wind Gusts 19.9 mph32.0 kmh -- 5.0 mph8.0 kmh
Humidity 96% 73% 88%
Pressure 30.33 in1027.1 mb 30.22 in1023.4 mb -
Precipitation 0.09 in2.3 mm - -
Hour Temp Dew Point Humidity Winds Wind Gusts Pressure Precip Precip Rate Daily Precip Total
12:06 AM 36.7°F2.6°C 34.9°F1.6°C 93% Calm Calm -- 30.33 in1027.1 mb 0.00 in0.0 mm 0.00 in0.0 mm 0.00 in0.0 mm
12:16 AM 36.3°F2.4°C 34.5°F1.4°C 93% Calm Calm -- 30.33 in1027.1 mb 0.00 in0.0 mm 0.00 in0.0 mm 0.00 in0.0 mm
12:26 AM 36.3°F2.4°C 34.5°F1.4°C 93% Calm Calm -- 30.33 in1027.1 mb 0.00 in0.0 mm 0.00 in0.0 mm 0.00 in0.0 mm
12:36 AM 36.3°F2.4°C 34.7°F1.5°C 94% Calm Calm -- 30.33 in1027.1 mb 0.00 in0.0 mm 0.00 in0.0 mm 0.00 in0.0 mm
12:46 AM 36.0°F2.2°C 34.2°F1.2°C 93% Calm Calm -- 30.33 in1027.1 mb 0.00 in0.0 mm 0.00 in0.0 mm 0.00 in0.0 mm
12:56 AM 36.0°F2.2°C 34.2°F1.2°C 93% Calm Calm -- 30.33 in1027.1 mb 0.00 in0.0 mm 0.00 in0.0 mm 0.00 in0.0 mm
01:07 AM 35.6°F2.0°C 33.8°F1.0°C 93% Calm Calm -- 30.32 in1026.8 mb 0.00 in0.0 mm 0.00 in0.0 mm 0.00 in0.0 mm
01:17 AM 35.4°F1.9°C 33.6°F0.9°C 93% Calm Calm -- 30.32 in1026.8 mb 0.00 in0.0 mm 0.00 in0.0 mm 0.00 in0.0 mm
01:27 AM 35.1°F1.7°C 33.4°F0.8°C 94% Calm Calm -- 30.32 in1026.8 mb 0.00 in0.0 mm 0.00 in0.0 mm 0.00 in0.0 mm
01:37 AM 34.9°F1.6°C 33.1°F0.6°C 93% Calm Calm -- 30.31 in1026.4 mb 0.00 in0.0 mm 0.00 in0.0 mm 0.00 in0.0 mm
01:47 AM 34.5°F1.4°C 32.9°F0.5°C 94% Calm Calm -- 30.31 in1026.4 mb 0.00 in0.0 mm 0.00 in0.0 mm 0.00 in0.0 mm
01:57 AM 34.5°F1.4°C 32.9°F0.5°C 94% Calm Calm -- 30.31 in1026.4 mb 0.00 in0.0 mm 0.00 in0.0 mm 0.00 in0.0 mm
02:07 AM 34.3°F1.3°C 32.7°F0.4°C 94% Calm Calm -- 30.31 in1026.4 mb 0.00 in0.0 mm 0.00 in0.0 mm 0.00 in0.0 mm
02:17 AM 34.2°F1.2°C 32.5°F0.3°C 94% Calm Calm -- 30.31 in1026.4 mb 0.00 in0.0 mm 0.00 in0.0 mm 0.00 in0.0 mm
02:28 AM 34.0°F1.1°C 32.4°F0.2°C 94% Calm Calm -- 30.31 in1026.4 mb 0.00 in0.0 mm 0.00 in0.0 mm 0.00 in0.0 mm
02:38 AM 33.8°F1.0°C 32.2°F0.1°C 94% Calm Calm -- 30.30 in1026.1 mb 0.00 in0.0 mm 0.00 in0.0 mm 0.00 in0.0 mm
02:48 AM 33.6°F0.9°C 32.0°F0.0°C 94% Calm Calm -- 30.30 in1026.1 mb 0.00 in0.0 mm 0.00 in0.0 mm 0.00 in0.0 mm
02:58 AM 33.8°F1.0°C 32.2°F0.1°C 94% Calm Calm -- 30.30 in1026.1 mb 0.00 in0.0 mm 0.00 in0.0 mm 0.00 in0.0 mm
03:08 AM 33.6°F0.9°C 32.0°F0.0°C 94% Calm Calm -- 30.30 in1026.1 mb 0.00 in0.0 mm 0.00 in0.0 mm 0.00 in0.0 mm
03:18 AM 33.4°F0.8°C 31.8°F-0.1°C 94% Calm Calm -- 30.30 in1026.1 mb 0.00 in0.0 mm 0.00 in0.0 mm 0.00 in0.0 mm
03:28 AM 33.3°F0.7°C 31.6°F-0.2°C 94% Calm Calm -- 30.30 in1026.1 mb 0.00 in0.0 mm 0.00 in0.0 mm 0.00 in0.0 mm
03:38 AM 33.3°F0.7°C 31.6°F-0.2°C 94% Calm Calm -- 30.30 in1026.1 mb 0.00 in0.0 mm 0.00 in0.0 mm 0.00 in0.0 mm
03:48 AM 33.3°F0.7°C 31.6°F-0.2°C 94% Calm Calm -- 30.29 in1025.7 mb 0.00 in0.0 mm 0.00 in0.0 mm 0.00 in0.0 mm
03:59 AM 33.4°F0.8°C 31.8°F-0.1°C 94% Calm Calm -- 30.29 in1025.7 mb 0.00 in0.0 mm 0.00 in0.0 mm 0.00 in0.0 mm
04:09 AM 33.4°F0.8°C 31.8°F-0.1°C 94% Calm Calm -- 30.29 in1025.7 mb 0.00 in0.0 mm 0.00 in0.0 mm 0.00 in0.0 mm
04:19 AM 33.4°F0.8°C 31.8°F-0.1°C 94% Calm Calm -- 30.30 in1026.1 mb 0.00 in0.0 mm 0.00 in0.0 mm 0.00 in0.0 mm
04:29 AM 33.6°F0.9°C 32.0°F0.0°C 94% Calm Calm -- 30.29 in1025.7 mb 0.00 in0.0 mm 0.00 in0.0 mm 0.00 in0.0 mm
04:39 AM 34.2°F1.2°C 32.9°F0.5°C 95% Calm Calm -- 30.29 in1025.7 mb 0.00 in0.0 mm 0.00 in0.0 mm 0.00 in0.0 mm
04:49 AM 34.5°F1.4°C 33.3°F0.7°C 95% Calm Calm -- 30.29 in1025.7 mb 0.00 in0.0 mm 0.00 in0.0 mm 0.00 in0.0 mm
05:00 AM 34.7°F1.5°C 33.4°F0.8°C 95% Calm Calm -- 30.29 in1025.7 mb 0.00 in0.0 mm 0.00 in0.0 mm 0.00 in0.0 mm
05:10 AM 34.7°F1.5°C 33.4°F0.8°C 95% Calm Calm -- 30.28 in1025.4 mb 0.00 in0.0 mm 0.00 in0.0 mm 0.00 in0.0 mm
05:20 AM 34.9°F1.6°C 33.6°F0.9°C 95% Calm Calm -- 30.28 in1025.4 mb 0.00 in0.0 mm 0.00 in0.0 mm 0.00 in0.0 mm
05:30 AM 35.2°F1.8°C 34.0°F1.1°C 95% Calm Calm -- 30.28 in1025.4 mb 0.00 in0.0 mm 0.00 in0.0 mm 0.00 in0.0 mm
05:40 AM 35.6°F2.0°C 34.3°F1.3°C 95% Calm Calm -- 30.28 in1025.4 mb 0.00 in0.0 mm 0.00 in0.0 mm 0.00 in0.0 mm
05:50 AM 35.8°F2.1°C 34.5°F1.4°C 95% Calm Calm -- 30.28 in1025.4 mb 0.00 in0.0 mm 0.00 in0.0 mm 0.00 in0.0 mm
06:01 AM 36.0°F2.2°C 34.7°F1.5°C 95% Calm Calm -- 30.28 in1025.4 mb 0.00 in0.0 mm 0.00 in0.0 mm 0.00 in0.0 mm
06:11 AM 35.4°F1.9°C 33.8°F1.0°C 94% Calm Calm -- 30.28 in1025.4 mb 0.00 in0.0 mm 0.00 in0.0 mm 0.00 in0.0 mm
06:21 AM 34.9°F1.6°C 33.3°F0.7°C 94% Calm Calm -- 30.28 in1025.4 mb 0.00 in0.0 mm 0.00 in0.0 mm 0.00 in0.0 mm
06:31 AM 34.3°F1.3°C 32.7°F0.4°C 94% Calm Calm -- 30.27 in1025.1 mb 0.00 in0.0 mm 0.00 in0.0 mm 0.00 in0.0 mm
06:41 AM 34.0°F1.1°C 32.4°F0.2°C 94% Calm Calm -- 30.27 in1025.1 mb 0.00 in0.0 mm 0.00 in0.0 mm 0.00 in0.0 mm
06:51 AM 34.2°F1.2°C 32.9°F0.5°C 95% Calm Calm -- 30.27 in1025.1 mb 0.00 in0.0 mm 0.00 in0.0 mm 0.00 in0.0 mm
07:01 AM 34.5°F1.4°C 33.3°F0.7°C 95% Calm Calm -- 30.27 in1025.1 mb 0.00 in0.0 mm 0.00 in0.0 mm 0.00 in0.0 mm
07:11 AM 35.2°F1.8°C 34.0°F1.1°C 95% Calm Calm -- 30.27 in1025.1 mb 0.00 in0.0 mm 0.00 in0.0 mm 0.00 in0.0 mm
07:21 AM 36.0°F2.2°C 34.7°F1.5°C 95% Calm Calm -- 30.28 in1025.4 mb 0.00 in0.0 mm 0.00 in0.0 mm 0.00 in0.0 mm
07:31 AM 36.3°F2.4°C 35.1°F1.7°C 95% Calm Calm -- 30.28 in1025.4 mb 0.00 in0.0 mm 0.00 in0.0 mm 0.00 in0.0 mm
07:42 AM 36.9°F2.7°C 35.6°F2.0°C 95% Calm Calm 0.9 mph1.4 kmh 30.28 in1025.4 mb 0.00 in0.0 mm 0.00 in0.0 mm 0.00 in0.0 mm
07:52 AM 37.0°F2.8°C 35.8°F2.1°C 95% Calm Calm -- 30.29 in1025.7 mb 0.00 in0.0 mm 0.00 in0.0 mm 0.00 in0.0 mm
08:02 AM 37.4°F3.0°C 36.1°F2.3°C 95% Calm Calm -- 30.29 in1025.7 mb 0.00 in0.0 mm 0.00 in0.0 mm 0.00 in0.0 mm
08:12 AM 37.8°F3.2°C 36.5°F2.5°C 95% Calm Calm -- 30.29 in1025.7 mb 0.00 in0.0 mm 0.00 in0.0 mm 0.00 in0.0 mm
08:22 AM 38.1°F3.4°C 36.9°F2.7°C 95% Calm Calm -- 30.29 in1025.7 mb 0.00 in0.0 mm 0.00 in0.0 mm 0.00 in0.0 mm
08:32 AM 38.7°F3.7°C 37.4°F3.0°C 95% Calm Calm -- 30.29 in1025.7 mb 0.00 in0.0 mm 0.00 in0.0 mm 0.00 in0.0 mm
08:42 AM 39.2°F4.0°C 37.9°F3.3°C 95% Calm Calm -- 30.29 in1025.7 mb 0.00 in0.0 mm 0.00 in0.0 mm 0.00 in0.0 mm
08:52 AM 39.6°F4.2°C 38.3°F3.5°C 95% Calm Calm -- 30.29 in1025.7 mb 0.00 in0.0 mm 0.00 in0.0 mm 0.00 in0.0 mm
09:02 AM 40.8°F4.9°C 39.7°F4.3°C 96% Calm Calm -- 30.28 in1025.4 mb 0.00 in0.0 mm 0.00 in0.0 mm 0.00 in0.0 mm
09:12 AM 43.3°F6.3°C 42.3°F5.7°C 96% Calm Calm -- 30.27 in1025.1 mb 0.00 in0.0 mm 0.00 in0.0 mm 0.00 in0.0 mm
09:22 AM 45.3°F7.4°C 44.2°F6.8°C 96% 0.9 mph S1.4 kmh S 8.1 mph13.0 kmh 30.27 in1025.1 mb 0.00 in0.0 mm 0.00 in0.0 mm 0.00 in0.0 mm
09:32 AM 47.1°F8.4°C 46.0°F7.8°C 96% 2.9 mph SSW4.7 kmh SSW 10.1 mph16.3 kmh 30.27 in1025.1 mb 0.00 in0.0 mm 0.00 in0.0 mm 0.00 in0.0 mm
09:43 AM 48.7°F9.3°C 47.3°F8.5°C 95% 2.0 mph S3.2 kmh S 10.1 mph16.3 kmh 30.28 in1025.4 mb 0.00 in0.0 mm 0.00 in0.0 mm 0.00 in0.0 mm
09:53 AM 50.2°F10.1°C 48.0°F8.9°C 92% 2.9 mph S4.7 kmh S 8.9 mph14.3 kmh 30.28 in1025.4 mb 0.00 in0.0 mm 0.00 in0.0 mm 0.00 in0.0 mm
10:03 AM 51.3°F10.7°C 47.5°F8.6°C 87% 4.0 mph SW6.4 kmh SW 10.1 mph16.3 kmh 30.28 in1025.4 mb 0.00 in0.0 mm 0.00 in0.0 mm 0.00 in0.0 mm
10:13 AM 52.0°F11.1°C 46.6°F8.1°C 82% 4.9 mph WSW7.9 kmh WSW 12.1 mph19.5 kmh 30.28 in1025.4 mb 0.00 in0.0 mm 0.00 in0.0 mm 0.00 in0.0 mm
10:23 AM 52.3°F11.3°C 46.4°F8.0°C 80% 4.9 mph SW7.9 kmh SW 13.0 mph20.9 kmh 30.28 in1025.4 mb 0.00 in0.0 mm 0.00 in0.0 mm 0.00 in0.0 mm
10:33 AM 52.7°F11.5°C 46.0°F7.8°C 78% 6.0 mph WSW9.7 kmh WSW 16.1 mph25.9 kmh 30.28 in1025.4 mb 0.00 in0.0 mm 0.00 in0.0 mm 0.00 in0.0 mm
10:43 AM 53.4°F11.9°C 46.8°F8.2°C 78% 6.0 mph S9.7 kmh S 17.0 mph27.4 kmh 30.29 in1025.7 mb 0.00 in0.0 mm 0.00 in0.0 mm 0.00 in0.0 mm
10:53 AM 54.1°F12.3°C 47.1°F8.4°C 77% 6.0 mph WSW9.7 kmh WSW 14.1 mph22.7 kmh 30.29 in1025.7 mb 0.00 in0.0 mm 0.00 in0.0 mm 0.00 in0.0 mm
11:03 AM 54.9°F12.7°C 47.1°F8.4°C 75% 6.9 mph WSW11.1 kmh WSW 14.1 mph22.7 kmh 30.28 in1025.4 mb 0.00 in0.0 mm 0.00 in0.0 mm 0.00 in0.0 mm
11:13 AM 54.9°F12.7°C 46.8°F8.2°C 74% 6.9 mph S11.1 kmh S 16.1 mph25.9 kmh 30.29 in1025.7 mb 0.00 in0.0 mm 0.00 in0.0 mm 0.00 in0.0 mm
11:23 AM 55.4°F13.0°C 47.3°F8.5°C 74% 6.9 mph SW11.1 kmh SW 17.9 mph28.8 kmh 30.29 in1025.7 mb 0.00 in0.0 mm 0.00 in0.0 mm 0.00 in0.0 mm
11:33 AM 55.2°F12.9°C 46.8°F8.2°C 73% 8.1 mph WSW13.0 kmh WSW 17.9 mph28.8 kmh 30.29 in1025.7 mb 0.00 in0.0 mm 0.00 in0.0 mm 0.00 in0.0 mm
11:43 AM 54.9°F12.7°C 46.8°F8.2°C 74% 6.0 mph SW9.7 kmh SW 15.0 mph24.1 kmh 30.29 in1025.7 mb 0.00 in0.0 mm 0.00 in0.0 mm 0.00 in0.0 mm
11:53 AM 54.7°F12.6°C 46.9°F8.3°C 75% 6.0 mph SW9.7 kmh SW 13.0 mph20.9 kmh 30.29 in1025.7 mb 0.00 in0.0 mm 0.00 in0.0 mm 0.00 in0.0 mm
12:03 PM 54.7°F12.6°C 47.3°F8.5°C 76% 4.9 mph SW7.9 kmh SW 11.0 mph17.7 kmh 30.28 in1025.4 mb 0.00 in0.0 mm 0.00 in0.0 mm 0.00 in0.0 mm
12:13 PM 55.0°F12.8°C 47.3°F8.5°C 75% 8.1 mph W13.0 kmh W 17.0 mph27.4 kmh 30.28 in1025.4 mb 0.00 in0.0 mm 0.00 in0.0 mm 0.00 in0.0 mm
12:23 PM 55.2°F12.9°C 47.5°F8.6°C 75% 6.9 mph SW11.1 kmh SW 17.0 mph27.4 kmh 30.28 in1025.4 mb 0.00 in0.0 mm 0.00 in0.0 mm 0.00 in0.0 mm
12:33 PM 55.0°F12.8°C 47.7°F8.7°C 76% 8.9 mph SW14.3 kmh SW 15.0 mph24.1 kmh 30.27 in1025.1 mb 0.00 in0.0 mm 0.00 in0.0 mm 0.00 in0.0 mm
12:43 PM 55.6°F13.1°C 48.6°F9.2°C 77% 8.1 mph SW13.0 kmh SW 17.9 mph28.8 kmh 30.27 in1025.1 mb 0.00 in0.0 mm 0.00 in0.0 mm 0.00 in0.0 mm
12:53 PM 56.3°F13.5°C 48.6°F9.2°C 75% 8.1 mph SW13.0 kmh SW 17.9 mph28.8 kmh 30.27 in1025.1 mb 0.00 in0.0 mm 0.00 in0.0 mm 0.00 in0.0 mm
01:03 PM 55.6°F13.1°C 47.5°F8.6°C 74% 10.1 mph WSW16.3 kmh WSW 19.0 mph30.6 kmh 30.27 in1025.1 mb 0.00 in0.0 mm 0.00 in0.0 mm 0.00 in0.0 mm
01:13 PM 55.9°F13.3°C 48.2°F9.0°C 75% 6.9 mph SSW11.1 kmh SSW 14.1 mph22.7 kmh 30.26 in1024.7 mb 0.00 in0.0 mm 0.00 in0.0 mm 0.00 in0.0 mm
01:23 PM 55.8°F13.2°C 48.4°F9.1°C 76% 8.1 mph S13.0 kmh S 13.0 mph20.9 kmh 30.26 in1024.7 mb 0.00 in0.0 mm 0.00 in0.0 mm 0.00 in0.0 mm
01:33 PM 55.2°F12.9°C 48.2°F9.0°C 77% 8.1 mph S13.0 kmh S 16.1 mph25.9 kmh 30.25 in1024.4 mb 0.00 in0.0 mm 0.00 in0.0 mm 0.00 in0.0 mm
01:43 PM 55.2°F12.9°C 47.8°F8.8°C 76% 8.1 mph SW13.0 kmh SW 17.9 mph28.8 kmh 30.25 in1024.4 mb 0.00 in0.0 mm 0.00 in0.0 mm 0.00 in0.0 mm
01:53 PM 55.2°F12.9°C 48.7°F9.3°C 79% 8.1 mph SW13.0 kmh SW 17.9 mph28.8 kmh 30.25 in1024.4 mb 0.00 in0.0 mm 0.00 in0.0 mm 0.00 in0.0 mm
02:03 PM 55.0°F12.8°C 48.4°F9.1°C 78% 6.9 mph SSW11.1 kmh SSW 16.1 mph25.9 kmh 30.25 in1024.4 mb 0.00 in0.0 mm 0.00 in0.0 mm 0.00 in0.0 mm
02:13 PM 55.6°F13.1°C 48.6°F9.2°C 77% 6.9 mph S11.1 kmh S 14.1 mph22.7 kmh 30.24 in1024.0 mb 0.00 in0.0 mm 0.00 in0.0 mm 0.00 in0.0 mm
02:23 PM 55.0°F12.8°C 48.6°F9.2°C 79% 8.1 mph SW13.0 kmh SW 17.0 mph27.4 kmh 30.24 in1024.0 mb 0.00 in0.0 mm 0.00 in0.0 mm 0.00 in0.0 mm
02:33 PM 54.7°F12.6°C 48.9°F9.4°C 81% 6.0 mph SW9.7 kmh SW 15.0 mph24.1 kmh 30.24 in1024.0 mb 0.00 in0.0 mm 0.00 in0.0 mm 0.00 in0.0 mm
02:43 PM 54.9°F12.7°C 49.1°F9.5°C 81% 4.0 mph SW6.4 kmh SW 15.0 mph24.1 kmh 30.24 in1024.0 mb 0.00 in0.0 mm 0.00 in0.0 mm 0.00 in0.0 mm
02:53 PM 55.0°F12.8°C 48.9°F9.4°C 80% 6.9 mph SW11.1 kmh SW 15.0 mph24.1 kmh 30.23 in1023.7 mb 0.00 in0.0 mm 0.00 in0.0 mm 0.00 in0.0 mm
03:03 PM 55.8°F13.2°C 49.3°F9.6°C 79% 6.9 mph WSW11.1 kmh WSW 15.0 mph24.1 kmh 30.23 in1023.7 mb 0.00 in0.0 mm 0.00 in0.0 mm 0.00 in0.0 mm
03:13 PM 55.9°F13.3°C 48.9°F9.4°C 77% 6.9 mph SW11.1 kmh SW 14.1 mph22.7 kmh 30.23 in1023.7 mb 0.00 in0.0 mm 0.00 in0.0 mm 0.00 in0.0 mm
03:23 PM 55.9°F13.3°C 48.9°F9.4°C 77% 6.9 mph S11.1 kmh S 15.0 mph24.1 kmh 30.22 in1023.4 mb 0.00 in0.0 mm 0.00 in0.0 mm 0.00 in0.0 mm
03:33 PM 55.8°F13.2°C 48.7°F9.3°C 77% 8.1 mph SW13.0 kmh SW 17.9 mph28.8 kmh 30.23 in1023.7 mb 0.00 in0.0 mm 0.00 in0.0 mm 0.00 in0.0 mm
03:43 PM 55.6°F13.1°C 48.9°F9.4°C 78% 6.0 mph SSW9.7 kmh SSW 13.0 mph20.9 kmh 30.23 in1023.7 mb 0.00 in0.0 mm 0.00 in0.0 mm 0.00 in0.0 mm
03:53 PM 55.4°F13.0°C 48.9°F9.4°C 79% 6.0 mph SW9.7 kmh SW 13.0 mph20.9 kmh 30.23 in1023.7 mb 0.00 in0.0 mm 0.00 in0.0 mm 0.00 in0.0 mm
04:03 PM 55.6°F13.1°C 49.5°F9.7°C 80% 6.0 mph SW9.7 kmh SW 13.0 mph20.9 kmh 30.23 in1023.7 mb 0.00 in0.0 mm 0.00 in0.0 mm 0.00 in0.0 mm
04:13 PM 55.8°F13.2°C 49.6°F9.8°C 80% 6.0 mph SW9.7 kmh SW 13.0 mph20.9 kmh 30.23 in1023.7 mb 0.00 in0.0 mm 0.00 in0.0 mm 0.00 in0.0 mm
04:23 PM 55.8°F13.2°C 49.3°F9.6°C 79% 6.9 mph WSW11.1 kmh WSW 19.9 mph32.0 kmh 30.23 in1023.7 mb 0.00 in0.0 mm 0.00 in0.0 mm 0.00 in0.0 mm
04:33 PM 55.8°F13.2°C 49.3°F9.6°C 79% 6.9 mph W11.1 kmh W 14.1 mph22.7 kmh 30.23 in1023.7 mb 0.00 in0.0 mm 0.00 in0.0 mm 0.00 in0.0 mm
04:43 PM 55.6°F13.1°C 49.8°F9.9°C 81% 6.9 mph SSW11.1 kmh SSW 15.0 mph24.1 kmh 30.23 in1023.7 mb 0.00 in0.0 mm 0.00 in0.0 mm 0.00 in0.0 mm
04:53 PM 55.6°F13.1°C 49.8°F9.9°C 81% 6.0 mph SW9.7 kmh SW 14.1 mph22.7 kmh 30.22 in1023.4 mb 0.00 in0.0 mm 0.00 in0.0 mm 0.00 in0.0 mm
05:03 PM 55.2°F12.9°C 49.5°F9.7°C 81% 6.9 mph SW11.1 kmh SW 14.1 mph22.7 kmh 30.23 in1023.7 mb 0.00 in0.0 mm 0.00 in0.0 mm 0.00 in0.0 mm
05:13 PM 54.9°F12.7°C 49.8°F9.9°C 83% 2.0 mph SW3.2 kmh SW 13.0 mph20.9 kmh 30.23 in1023.7 mb 0.00 in0.0 mm 0.00 in0.0 mm 0.00 in0.0 mm
05:23 PM 54.7°F12.6°C 50.0°F10.0°C 84% 2.9 mph WSW4.7 kmh WSW 8.1 mph13.0 kmh 30.23 in1023.7 mb 0.00 in0.0 mm 0.00 in0.0 mm 0.00 in0.0 mm
05:33 PM 54.3°F12.4°C 49.8°F9.9°C 85% 2.0 mph WSW3.2 kmh WSW 11.0 mph17.7 kmh 30.23 in1023.7 mb 0.00 in0.0 mm 0.00 in0.0 mm 0.00 in0.0 mm
05:43 PM 54.3°F12.4°C 49.8°F9.9°C 85% 0.9 mph SSW1.4 kmh SSW 6.9 mph11.1 kmh 30.23 in1023.7 mb 0.00 in0.0 mm 0.00 in0.0 mm 0.00 in0.0 mm
05:53 PM 54.3°F12.4°C 49.8°F9.9°C 85% 2.9 mph SW4.7 kmh SW 6.9 mph11.1 kmh 30.23 in1023.7 mb 0.00 in0.0 mm 0.00 in0.0 mm 0.00 in0.0 mm
06:03 PM 54.3°F12.4°C 49.8°F9.9°C 85% Calm Calm -- 30.24 in1024.0 mb 0.00 in0.0 mm 0.00 in0.0 mm 0.00 in0.0 mm
06:13 PM 54.3°F12.4°C 49.8°F9.9°C 85% Calm Calm -- 30.24 in1024.0 mb 0.00 in0.0 mm 0.00 in0.0 mm 0.00 in0.0 mm
06:33 PM 54.1°F12.3°C 49.8°F9.9°C 85% Calm Calm -- 30.24 in1024.0 mb 0.00 in0.0 mm 0.00 in0.0 mm 0.00 in0.0 mm
06:43 PM 54.0°F12.2°C 49.6°F9.8°C 85% Calm Calm -- 30.24 in1024.0 mb 0.00 in0.0 mm 0.00 in0.0 mm 0.00 in0.0 mm
06:54 PM 54.0°F12.2°C 49.6°F9.8°C 85% Calm Calm -- 30.24 in1024.0 mb 0.00 in0.0 mm 0.00 in0.0 mm 0.00 in0.0 mm
07:04 PM 54.0°F12.2°C 49.8°F9.9°C 86% Calm Calm -- 30.24 in1024.0 mb 0.00 in0.0 mm 0.00 in0.0 mm 0.00 in0.0 mm
07:14 PM 53.8°F12.1°C 50.0°F10.0°C 87% Calm Calm -- 30.23 in1023.7 mb 0.00 in0.0 mm 0.00 in0.0 mm 0.00 in0.0 mm
07:24 PM 53.6°F12.0°C 49.8°F9.9°C 87% Calm Calm -- 30.24 in1024.0 mb 0.00 in0.0 mm 0.00 in0.0 mm 0.00 in0.0 mm
07:34 PM 53.4°F11.9°C 49.6°F9.8°C 87% Calm Calm -- 30.24 in1024.0 mb 0.00 in0.0 mm 0.00 in0.0 mm 0.00 in0.0 mm
07:44 PM 53.2°F11.8°C 49.8°F9.9°C 88% Calm Calm -- 30.24 in1024.0 mb 0.00 in0.0 mm 0.00 in0.0 mm 0.00 in0.0 mm
07:54 PM 53.2°F11.8°C 49.8°F9.9°C 88% Calm Calm -- 30.24 in1024.0 mb 0.00 in0.0 mm 0.00 in0.0 mm 0.00 in0.0 mm
08:04 PM 53.2°F11.8°C 49.8°F9.9°C 88% Calm Calm -- 30.24 in1024.0 mb 0.00 in0.0 mm 0.00 in0.0 mm 0.00 in0.0 mm
08:14 PM 53.1°F11.7°C 49.6°F9.8°C 88% Calm Calm 4.9 mph7.9 kmh 30.24 in1024.0 mb 0.00 in0.0 mm 0.00 in0.0 mm 0.00 in0.0 mm
08:25 PM 53.1°F11.7°C 49.8°F9.9°C 89% Calm Calm -- 30.24 in1024.0 mb 0.00 in0.0 mm 0.00 in0.0 mm 0.00 in0.0 mm
08:35 PM 52.9°F11.6°C 49.6°F9.8°C 89% Calm Calm -- 30.24 in1024.0 mb 0.00 in0.0 mm 0.00 in0.0 mm 0.00 in0.0 mm
08:45 PM 52.5°F11.4°C 49.6°F9.8°C 90% Calm Calm -- 30.24 in1024.0 mb 0.00 in0.0 mm 0.00 in0.0 mm 0.00 in0.0 mm
08:55 PM 52.3°F11.3°C 49.5°F9.7°C 90% Calm Calm -- 30.24 in1024.0 mb 0.00 in0.0 mm 0.00 in0.0 mm 0.00 in0.0 mm
09:05 PM 52.3°F11.3°C 49.5°F9.7°C 90% Calm Calm -- 30.24 in1024.0 mb 0.00 in0.0 mm 0.00 in0.0 mm 0.00 in0.0 mm
09:15 PM 52.2°F11.2°C 49.3°F9.6°C 90% Calm Calm -- 30.24 in1024.0 mb 0.01 in0.3 mm 0.06 in1.5 mm 0.01 in0.3 mm
09:25 PM 52.2°F11.2°C 49.6°F9.8°C 91% Calm Calm -- 30.24 in1024.0 mb 0.02 in0.5 mm 0.06 in1.5 mm 0.02 in0.5 mm
09:35 PM 52.0°F11.1°C 49.5°F9.7°C 91% Calm Calm -- 30.24 in1024.0 mb 0.02 in0.5 mm 0.00 in0.0 mm 0.02 in0.5 mm
09:45 PM 52.0°F11.1°C 49.6°F9.8°C 92% Calm Calm -- 30.24 in1024.0 mb 0.03 in0.8 mm 0.06 in1.5 mm 0.03 in0.8 mm
09:55 PM 51.8°F11.0°C 49.6°F9.8°C 92% Calm Calm -- 30.24 in1024.0 mb 0.04 in1.0 mm 0.06 in1.5 mm 0.04 in1.0 mm
10:06 PM 51.6°F10.9°C 49.5°F9.7°C 92% Calm Calm -- 30.25 in1024.4 mb 0.04 in1.0 mm 0.00 in0.0 mm 0.04 in1.0 mm
10:16 PM 51.6°F10.9°C 49.5°F9.7°C 92% Calm Calm -- 30.25 in1024.4 mb 0.06 in1.5 mm 0.12 in3.0 mm 0.08 in2.0 mm
10:26 PM 51.6°F10.9°C 49.6°F9.8°C 93% Calm Calm -- 30.25 in1024.4 mb 0.07 in1.8 mm 0.06 in1.5 mm 0.09 in2.3 mm
10:36 PM 51.6°F10.9°C 49.6°F9.8°C 93% Calm Calm -- 30.24 in1024.0 mb 0.08 in2.0 mm 0.06 in1.5 mm 0.09 in2.3 mm
10:46 PM 51.4°F10.8°C 49.5°F9.7°C 93% Calm Calm -- 30.24 in1024.0 mb 0.06 in1.5 mm 0.00 in0.0 mm 0.09 in2.3 mm
10:56 PM 51.3°F10.7°C 49.3°F9.6°C 93% Calm Calm -- 30.23 in1023.7 mb 0.06 in1.5 mm 0.00 in0.0 mm 0.09 in2.3 mm
11:06 PM 50.7°F10.4°C 48.7°F9.3°C 93% Calm Calm -- 30.23 in1023.7 mb 0.06 in1.5 mm 0.00 in0.0 mm 0.09 in2.3 mm
11:16 PM 50.0°F10.0°C 47.8°F8.8°C 92% Calm Calm -- 30.23 in1023.7 mb 0.02 in0.5 mm 0.00 in0.0 mm 0.09 in2.3 mm
11:26 PM 49.3°F9.6°C 47.1°F8.4°C 92% Calm Calm -- 30.23 in1023.7 mb 0.00 in0.0 mm 0.00 in0.0 mm 0.09 in2.3 mm
11:36 PM 48.4°F9.1°C 46.4°F8.0°C 93% Calm Calm -- 30.22 in1023.4 mb 0.00 in0.0 mm 0.00 in0.0 mm 0.09 in2.3 mm
11:47 PM 47.8°F8.8°C 45.9°F7.7°C 93% Calm Calm -- 30.23 in1023.7 mb 0.00 in0.0 mm 0.00 in0.0 mm 0.09 in2.3 mm
11:57 PM 48.2°F9.0°C 46.2°F7.9°C 93% Calm Calm -- 30.23 in1023.7 mb 0.00 in0.0 mm 0.00 in0.0 mm 0.09 in2.3 mm